Time;durP1;ratioP1;P1;durP2;ratioP2;P2;SDS_P1;SDS_P2;PMS_P1;PMS_P2;Temp;Humidity;BMP_temperature;BMP_pressure;BME280_temperature;BME280_humidity;BME280_pressure;Samples;Min_cycle;Max_cycle;Signal;HPM_P1;HPM_P2
2023/10/04 00:00:14;;;;;;;7.60;2.33;;;11.90;99.90;;;;;;4995938;28;20710;-78
2023/10/04 00:02:45;;;;;;;5.97;2.07;;;11.90;99.90;;;;;;4990550;28;20232;-78
2023/10/04 00:05:14;;;;;;;12.30;3.13;;;11.90;99.90;;;;;;4989271;28;20222;-78
2023/10/04 00:07:42;;;;;;;7.13;2.27;;;11.90;99.90;;;;;;4997423;28;20218;-78
2023/10/04 00:10:09;;;;;;;8.03;2.50;;;11.90;99.90;;;;;;4992683;28;20452;-77
2023/10/04 00:12:36;;;;;;;6.10;2.20;;;11.90;99.90;;;;;;4998237;28;20227;-77
2023/10/04 00:15:04;;;;;;;9.97;2.70;;;11.90;99.90;;;;;;4995769;28;20224;-78
2023/10/04 00:17:31;;;;;;;6.80;2.40;;;11.90;99.90;;;;;;5016661;28;20267;-78
2023/10/04 00:19:59;;;;;;;11.33;2.70;;;11.90;99.90;;;;;;4999925;28;20213;-78
2023/10/04 00:22:26;;;;;;;5.60;2.07;;;11.80;99.90;;;;;;5032121;28;20234;-78
2023/10/04 00:24:53;;;;;;;7.77;2.23;;;11.90;99.90;;;;;;5024456;28;20222;-78
2023/10/04 00:27:20;;;;;;;5.23;2.23;;;11.90;99.90;;;;;;5007133;28;20232;-79
2023/10/04 00:29:46;;;;;;;6.80;2.47;;;11.90;99.90;;;;;;5006042;28;20315;-79
2023/10/04 00:32:13;;;;;;;9.00;2.47;;;11.80;99.90;;;;;;4998132;28;20227;-79
2023/10/04 00:34:40;;;;;;;6.30;2.10;;;11.90;99.90;;;;;;5025895;28;20252;-79
2023/10/04 00:37:09;;;;;;;7.43;2.63;;;11.80;99.90;;;;;;5033800;28;20226;-79
2023/10/04 00:39:36;;;;;;;8.47;2.50;;;11.80;99.90;;;;;;5020308;28;20227;-79
2023/10/04 00:42:04;;;;;;;8.90;2.43;;;11.90;99.90;;;;;;5035402;28;20625;-79
2023/10/04 00:44:34;;;;;;;5.60;2.10;;;11.90;99.90;;;;;;5034256;28;20783;-79
2023/10/04 00:47:05;;;;;;;6.50;1.80;;;11.90;99.90;;;;;;5017998;28;20754;-79
2023/10/04 00:49:32;;;;;;;6.63;2.00;;;12.00;99.90;;;;;;5017083;28;20231;-79
2023/10/04 00:52:01;;;;;;;7.73;2.17;;;12.00;99.90;;;;;;5016546;28;20239;-78
2023/10/04 00:54:31;;;;;;;4.97;2.13;;;12.00;99.90;;;;;;5015463;28;20224;-79
2023/10/04 00:56:58;;;;;;;4.90;1.93;;;12.00;99.90;;;;;;5022519;28;20231;-78
2023/10/04 00:59:25;;;;;;;9.47;2.40;;;12.00;99.90;;;;;;5033343;28;20703;-78
2023/10/04 01:01:52;;;;;;;5.63;2.17;;;12.00;99.90;;;;;;5017667;28;20232;-78
2023/10/04 01:04:19;;;;;;;5.53;2.30;;;12.10;99.90;;;;;;5016194;28;20221;-79
2023/10/04 01:06:46;;;;;;;6.30;2.30;;;12.10;99.90;;;;;;5018757;28;20307;-80
2023/10/04 01:09:14;;;;;;;5.83;1.97;;;12.10;99.90;;;;;;5035445;28;20307;-80
2023/10/04 01:11:48;;;;;;;7.10;2.00;;;12.10;99.90;;;;;;5035310;28;20615;-79
2023/10/04 01:14:25;;;;;;;6.00;2.00;;;12.10;99.90;;;;;;5018234;28;20225;-80
2023/10/04 01:16:53;;;;;;;7.40;2.63;;;12.10;99.90;;;;;;5038795;28;20361;-79
2023/10/04 01:19:22;;;;;;;8.23;2.70;;;12.10;99.90;;;;;;5016113;28;20339;-79
2023/10/04 01:21:49;;;;;;;4.90;2.27;;;12.10;99.90;;;;;;5031733;28;20729;-79
2023/10/04 01:24:19;;;;;;;7.37;2.00;;;12.10;99.90;;;;;;5015806;28;20220;-79
2023/10/04 01:26:46;;;;;;;6.50;2.13;;;12.10;99.90;;;;;;5017243;28;20243;-78
2023/10/04 01:29:15;;;;;;;6.77;1.97;;;12.10;99.90;;;;;;5016379;28;20229;-78
2023/10/04 01:31:43;;;;;;;6.03;2.47;;;12.10;99.90;;;;;;5015213;28;20489;-78
2023/10/04 01:34:13;;;;;;;7.50;2.30;;;12.10;99.90;;;;;;5015080;28;20227;-79
2023/10/04 01:36:41;;;;;;;6.90;2.00;;;12.10;99.90;;;;;;5015033;28;20547;-79
2023/10/04 01:39:16;;;;;;;6.53;2.07;;;12.10;99.90;;;;;;5016420;28;20590;-79
2023/10/04 01:41:44;;;;;;;6.17;2.20;;;12.10;99.90;;;;;;5014064;28;20233;-79
2023/10/04 01:44:11;;;;;;;6.50;2.03;;;12.00;99.90;;;;;;5015986;28;20275;-79
2023/10/04 01:46:38;;;;;;;6.30;2.40;;;12.00;99.90;;;;;;5012811;28;20310;-80
2023/10/04 01:49:07;;;;;;;8.60;2.13;;;12.00;99.90;;;;;;5012792;28;20761;-79
2023/10/04 01:51:34;;;;;;;6.63;2.03;;;12.00;99.90;;;;;;5019893;28;20279;-78
2023/10/04 01:54:03;;;;;;;4.10;2.00;;;12.00;99.90;;;;;;5020585;28;20223;-78
2023/10/04 01:56:30;;;;;;;5.43;2.00;;;12.00;99.90;;;;;;5015804;28;20429;-79
2023/10/04 01:58:58;;;;;;;7.63;2.53;;;12.00;99.90;;;;;;5018051;28;20209;-78
2023/10/04 02:01:26;;;;;;;9.37;2.40;;;12.00;99.90;;;;;;5011741;28;20223;-78
2023/10/04 02:03:53;;;;;;;9.50;2.43;;;12.00;99.90;;;;;;5019479;28;20229;-77
2023/10/04 02:06:20;;;;;;;8.53;2.47;;;12.00;99.90;;;;;;5016685;28;20226;-78
2023/10/04 02:08:47;;;;;;;6.93;1.93;;;12.00;99.90;;;;;;5033036;28;20278;-79
2023/10/04 02:11:13;;;;;;;6.73;2.50;;;12.00;99.90;;;;;;5012407;28;20224;-77
2023/10/04 02:13:42;;;;;;;6.33;2.00;;;12.00;99.90;;;;;;5016398;28;20323;-78
2023/10/04 02:16:19;;;;;;;5.40;2.30;;;12.10;99.90;;;;;;5031751;28;20227;-78
2023/10/04 02:18:47;;;;;;;8.00;2.30;;;12.00;99.90;;;;;;5012258;28;20263;-79
2023/10/04 02:21:13;;;;;;;9.30;2.87;;;12.00;99.90;;;;;;5010431;28;20224;-78
2023/10/04 02:23:40;;;;;;;6.07;2.40;;;12.10;99.90;;;;;;5033181;28;20215;-78
2023/10/04 02:26:07;;;;;;;8.20;2.40;;;12.10;99.90;;;;;;5029067;28;20216;-78
2023/10/04 02:28:34;;;;;;;5.43;2.37;;;12.10;99.90;;;;;;5016645;28;20709;-78
2023/10/04 02:31:02;;;;;;;7.23;2.50;;;12.10;99.90;;;;;;5016345;28;20288;-78
2023/10/04 02:33:38;;;;;;;6.57;2.20;;;12.10;99.90;;;;;;5014880;28;20221;-78
2023/10/04 02:36:06;;;;;;;6.63;2.07;;;12.10;99.90;;;;;;5021451;28;20290;-78
2023/10/04 02:38:36;;;;;;;5.90;2.27;;;12.10;99.90;;;;;;5010169;28;20317;-79
2023/10/04 02:41:05;;;;;;;7.07;2.80;;;12.10;99.90;;;;;;5000476;28;20503;-79
2023/10/04 02:43:32;;;;;;;7.93;2.40;;;12.00;99.90;;;;;;5001498;28;20240;-79
2023/10/04 02:45:59;;;;;;;11.77;2.50;;;12.00;99.90;;;;;;5019046;28;20373;-78
2023/10/04 02:48:26;;;;;;;8.87;2.60;;;12.00;99.90;;;;;;5021179;28;20242;-78
2023/10/04 02:50:56;;;;;;;7.70;2.30;;;12.00;99.90;;;;;;5007517;28;20239;-78
2023/10/04 02:53:24;;;;;;;7.97;2.60;;;12.00;99.90;;;;;;5006158;28;20246;-78
2023/10/04 02:55:54;;;;;;;5.77;2.10;;;12.00;99.90;;;;;;5010734;28;20747;-78
2023/10/04 02:58:21;;;;;;;8.80;2.57;;;12.00;99.90;;;;;;5004895;22;20243;-76
2023/10/04 03:00:50;;;;;;;9.17;2.70;;;12.00;99.90;;;;;;4994536;28;20430;-77
2023/10/04 03:03:22;;;;;;;12.80;3.20;;;12.00;99.90;;;;;;4994110;28;20244;-76
2023/10/04 03:05:54;;;;;;;7.67;2.30;;;12.00;99.90;;;;;;4976965;28;20220;-76
2023/10/04 03:08:23;;;;;;;8.20;2.97;;;12.00;99.90;;;;;;4978265;28;20229;-76
2023/10/04 03:10:51;;;;;;;6.83;2.20;;;12.00;99.90;;;;;;4961459;28;20232;-77
2023/10/04 03:13:24;;;;;;;5.33;2.00;;;12.10;99.90;;;;;;4960560;28;20232;-77
2023/10/04 03:15:53;;;;;;;9.57;2.50;;;12.10;99.90;;;;;;4960593;28;20230;-76
2023/10/04 03:18:21;;;;;;;12.57;3.17;;;12.10;99.90;;;;;;4972362;28;20253;-76
2023/10/04 03:21:08;;;;;;;7.67;2.23;;;12.10;99.90;;;;;;4989178;28;20232;-77
2023/10/04 03:23:41;;;;;;;7.70;2.40;;;12.10;99.90;;;;;;4959507;28;20248;-76
2023/10/04 03:26:18;;;;;;;8.27;2.77;;;12.10;99.90;;;;;;4962546;28;20708;-76
2023/10/04 03:28:49;;;;;;;9.17;2.33;;;12.10;99.90;;;;;;4985122;28;20228;-76
2023/10/04 03:31:20;;;;;;;10.17;2.30;;;12.10;99.90;;;;;;4961870;28;20281;-76
2023/10/04 03:33:53;;;;;;;9.67;2.40;;;12.10;99.90;;;;;;4962034;28;20299;-77
2023/10/04 03:36:25;;;;;;;8.13;2.33;;;12.10;99.90;;;;;;4993638;28;20233;-77
2023/10/04 03:38:57;;;;;;;7.13;2.37;;;12.10;99.90;;;;;;4961246;28;20232;-78
2023/10/04 03:41:23;;;;;;;9.27;2.60;;;12.00;99.90;;;;;;4975998;28;20234;-76
2023/10/04 03:43:55;;;;;;;6.30;2.73;;;12.00;99.90;;;;;;4990746;28;20228;-76
2023/10/04 03:46:22;;;;;;;9.77;2.57;;;12.00;99.90;;;;;;4958896;28;20230;-76
2023/10/04 03:48:55;;;;;;;7.73;2.37;;;11.90;99.90;;;;;;4955963;28;20654;-76
2023/10/04 03:51:22;;;;;;;11.27;2.80;;;11.90;99.90;;;;;;4955783;28;20233;-75
2023/10/04 03:53:53;;;;;;;7.33;2.37;;;11.90;99.90;;;;;;4963817;28;20219;-76
2023/10/04 03:56:23;;;;;;;11.43;3.00;;;11.80;99.90;;;;;;4963116;28;20218;-76
2023/10/04 03:58:51;;;;;;;8.50;2.40;;;11.80;99.90;;;;;;4965263;28;20224;-76
2023/10/04 04:01:19;;;;;;;5.17;1.73;;;11.80;99.90;;;;;;4972097;28;20229;-76
2023/10/04 04:03:49;;;;;;;10.03;3.03;;;11.80;99.90;;;;;;4966148;28;20242;-76
2023/10/04 04:06:16;;;;;;;7.90;2.30;;;11.80;99.90;;;;;;4964541;28;20702;-76
2023/10/04 04:08:46;;;;;;;6.63;2.10;;;11.70;99.90;;;;;;4964106;28;20223;-76
2023/10/04 04:11:13;;;;;;;5.60;1.93;;;11.70;99.90;;;;;;4962464;28;20226;-77
2023/10/04 04:13:44;;;;;;;7.73;2.40;;;11.70;99.90;;;;;;4964190;28;20257;-76
2023/10/04 04:16:11;;;;;;;9.27;2.60;;;11.60;99.90;;;;;;4965733;28;20596;-76
2023/10/04 04:18:40;;;;;;;6.83;2.40;;;11.60;99.90;;;;;;4974937;28;20686;-81
2023/10/04 04:21:07;;;;;;;8.87;2.33;;;11.60;99.90;;;;;;4991954;28;20230;-78
2023/10/04 04:23:35;;;;;;;8.20;2.53;;;11.60;99.90;;;;;;4980035;28;20635;-78
2023/10/04 04:26:05;;;;;;;8.40;2.10;;;11.70;99.90;;;;;;4979693;28;20232;-78
2023/10/04 04:28:34;;;;;;;8.30;2.53;;;11.70;99.90;;;;;;4956867;28;20690;-77
2023/10/04 04:31:14;;;;;;;11.60;2.90;;;11.70;99.90;;;;;;4976109;28;20229;-78
2023/10/04 04:33:42;;;;;;;12.50;2.93;;;11.70;99.90;;;;;;4964230;28;20314;-77
2023/10/04 04:36:17;;;;;;;8.93;2.47;;;11.70;99.90;;;;;;4976215;28;20276;-77
2023/10/04 04:38:47;;;;;;;6.50;2.30;;;11.70;99.90;;;;;;4967128;28;20226;-77
2023/10/04 04:41:20;;;;;;;6.90;2.27;;;11.80;99.90;;;;;;4972892;28;20286;-78
2023/10/04 04:43:49;;;;;;;5.57;2.23;;;11.80;99.90;;;;;;4964225;28;20219;-78
2023/10/04 04:46:18;;;;;;;10.20;2.53;;;11.80;99.90;;;;;;4995365;28;20224;-78
2023/10/04 04:48:48;;;;;;;7.77;2.03;;;11.80;99.90;;;;;;4973309;28;20237;-78
2023/10/04 04:51:18;;;;;;;7.77;2.27;;;11.80;99.90;;;;;;4965449;28;20317;-79
2023/10/04 04:53:56;;;;;;;8.90;2.33;;;11.80;99.90;;;;;;4963045;28;20322;-78
2023/10/04 04:56:26;;;;;;;8.50;2.53;;;11.80;99.90;;;;;;4993629;28;20219;-78
2023/10/04 04:58:56;;;;;;;12.73;2.90;;;11.80;99.90;;;;;;4964206;28;20455;-78
2023/10/04 05:01:33;;;;;;;10.37;2.77;;;11.80;99.90;;;;;;4956999;28;20231;-78
2023/10/04 05:04:00;;;;;;;9.77;2.37;;;11.80;99.90;;;;;;4963176;28;20722;-78
2023/10/04 05:06:27;;;;;;;9.13;2.87;;;11.70;99.90;;;;;;4980662;28;20449;-78
2023/10/04 05:08:56;;;;;;;7.13;2.63;;;11.70;99.90;;;;;;4962716;28;20694;-78
2023/10/04 05:11:24;;;;;;;9.83;2.90;;;11.80;99.90;;;;;;4973844;28;20235;-78
2023/10/04 05:13:51;;;;;;;9.27;2.67;;;11.70;99.90;;;;;;4964139;28;20225;-78
2023/10/04 05:16:18;;;;;;;9.10;2.90;;;11.80;99.90;;;;;;4956508;28;20256;-78
2023/10/04 05:18:46;;;;;;;13.27;2.90;;;11.80;99.90;;;;;;4959741;28;20228;-78
2023/10/04 05:21:14;;;;;;;10.13;2.63;;;11.80;99.90;;;;;;4962264;28;20247;-78
2023/10/04 05:23:41;;;;;;;7.00;2.33;;;11.80;99.90;;;;;;4963980;28;20229;-78
2023/10/04 05:26:08;;;;;;;5.97;2.10;;;11.80;99.90;;;;;;4992907;28;20304;-78
2023/10/04 05:28:35;;;;;;;12.00;3.23;;;11.80;99.90;;;;;;4962297;28;20255;-78
2023/10/04 05:31:03;;;;;;;10.57;2.40;;;11.80;99.90;;;;;;4962683;28;20214;-78
2023/10/04 05:33:30;;;;;;;6.50;2.67;;;11.80;99.90;;;;;;4962555;28;20236;-78
2023/10/04 05:36:01;;;;;;;8.67;2.67;;;11.80;99.90;;;;;;4963364;28;20226;-78
2023/10/04 05:38:28;;;;;;;6.30;2.50;;;11.80;99.90;;;;;;4961971;28;20250;-78
2023/10/04 05:40:56;;;;;;;10.10;2.50;;;11.80;99.90;;;;;;4965807;28;20220;-78
2023/10/04 05:43:23;;;;;;;9.67;3.20;;;11.80;99.90;;;;;;4962711;28;20233;-77
2023/10/04 05:45:50;;;;;;;17.00;3.23;;;11.80;99.90;;;;;;4955569;28;21043;-77
2023/10/04 05:48:19;;;;;;;7.27;2.30;;;11.90;99.90;;;;;;4961826;28;20731;-76
2023/10/04 05:50:49;;;;;;;10.93;2.67;;;11.90;99.90;;;;;;4957291;28;20495;-76
2023/10/04 05:53:20;;;;;;;10.60;2.77;;;12.00;99.90;;;;;;4959665;28;20713;-76
2023/10/04 05:55:48;;;;;;;7.50;2.70;;;12.00;99.90;;;;;;4964713;28;20230;-76
2023/10/04 05:58:16;;;;;;;7.33;2.77;;;12.00;99.90;;;;;;4977747;28;20358;-75
2023/10/04 06:00:51;;;;;;;9.03;2.40;;;12.00;99.90;;;;;;4961484;28;20236;-77
2023/10/04 06:03:18;;;;;;;11.97;3.10;;;12.00;99.90;;;;;;4982264;28;20641;-77
2023/10/04 06:05:45;;;;;;;7.50;2.80;;;12.00;99.90;;;;;;4969114;28;20781;-76
2023/10/04 06:08:18;;;;;;;9.47;2.63;;;12.00;99.90;;;;;;4967007;28;20227;-78
2023/10/04 06:10:48;;;;;;;8.67;2.57;;;12.00;99.90;;;;;;4965970;28;20904;-78
2023/10/04 06:13:17;;;;;;;7.50;2.60;;;12.10;99.90;;;;;;4974717;28;20487;-78
2023/10/04 06:15:46;;;;;;;7.93;2.50;;;12.10;99.90;;;;;;4964533;28;20222;-77
2023/10/04 06:18:13;;;;;;;7.47;2.43;;;12.10;99.90;;;;;;4962592;28;20256;-79
2023/10/04 06:20:40;;;;;;;8.20;2.70;;;12.10;99.90;;;;;;4966023;28;20211;-78
2023/10/04 06:23:09;;;;;;;8.60;2.60;;;12.10;99.90;;;;;;4994102;28;20579;-77
2023/10/04 06:25:41;;;;;;;9.73;3.10;;;12.10;99.90;;;;;;4967562;28;20321;-78
2023/10/04 06:28:10;;;;;;;8.80;3.07;;;12.10;99.90;;;;;;4963684;28;20222;-78
2023/10/04 06:30:38;;;;;;;9.40;3.03;;;12.10;99.90;;;;;;4963607;28;20291;-79
2023/10/04 06:33:06;;;;;;;9.20;2.80;;;12.10;99.90;;;;;;4977741;28;20759;-79
2023/10/04 06:35:33;;;;;;;9.13;2.90;;;12.10;99.90;;;;;;4966342;28;20771;-78
2023/10/04 06:38:01;;;;;;;10.00;2.53;;;12.20;99.90;;;;;;4968887;28;20238;-78
2023/10/04 06:40:31;;;;;;;15.23;3.50;;;12.20;99.90;;;;;;4969727;28;20240;-79
2023/10/04 06:43:00;;;;;;;8.40;2.47;;;12.30;99.90;;;;;;4968594;28;20226;-78
2023/10/04 06:45:28;;;;;;;7.77;2.50;;;12.30;99.90;;;;;;4970828;28;20297;-78
2023/10/04 06:47:57;;;;;;;9.70;2.67;;;12.30;99.90;;;;;;4971220;28;20698;-78
2023/10/04 06:50:28;;;;;;;8.77;2.47;;;12.40;99.90;;;;;;4998424;28;20226;-77
2023/10/04 06:52:56;;;;;;;9.40;2.40;;;12.40;99.90;;;;;;4968273;28;20286;-77
2023/10/04 06:55:23;;;;;;;4.87;2.13;;;12.40;99.90;;;;;;4967292;28;20253;-78
2023/10/04 06:57:49;;;;;;;9.60;2.67;;;12.50;99.90;;;;;;4981398;28;20240;-78
2023/10/04 07:00:19;;;;;;;9.47;2.60;;;12.50;99.90;;;;;;4966755;28;20607;-78
2023/10/04 07:02:48;;;;;;;9.60;2.83;;;12.50;99.90;;;;;;4966960;28;20230;-78
2023/10/04 07:05:16;;;;;;;10.27;2.50;;;12.50;99.90;;;;;;4970065;28;20229;-78
2023/10/04 07:07:43;;;;;;;6.93;2.60;;;12.60;99.90;;;;;;4966331;28;20242;-78
2023/10/04 07:10:15;;;;;;;10.73;3.00;;;12.70;99.90;;;;;;4964834;28;20246;-78
2023/10/04 07:12:43;;;;;;;9.37;2.80;;;12.70;99.90;;;;;;4997689;28;20262;-78
2023/10/04 07:15:11;;;;;;;12.57;2.67;;;12.80;99.90;;;;;;4964871;28;20220;-77
2023/10/04 07:17:39;;;;;;;8.67;3.30;;;12.80;99.90;;;;;;4961230;28;20231;-78
2023/10/04 07:20:13;;;;;;;7.97;2.87;;;12.90;99.90;;;;;;4963272;28;20232;-78
2023/10/04 07:22:41;;;;;;;9.10;2.87;;;13.00;99.90;;;;;;4973890;28;20612;-78
2023/10/04 07:25:09;;;;;;;10.33;2.63;;;13.00;99.90;;;;;;4995962;28;20212;-78
2023/10/04 07:27:35;;;;;;;6.93;2.60;;;13.00;99.90;;;;;;4965480;28;20310;-78
2023/10/04 07:30:03;;;;;;;8.23;2.40;;;13.00;99.90;;;;;;4965818;28;20219;-78
2023/10/04 07:32:31;;;;;;;9.00;2.73;;;13.10;99.90;;;;;;4961409;28;20246;-78
2023/10/04 07:34:58;;;;;;;7.60;2.27;;;13.10;99.90;;;;;;4964126;28;20234;-78
2023/10/04 07:37:26;;;;;;;14.10;2.67;;;13.10;99.90;;;;;;4962452;28;20813;-78
2023/10/04 07:39:53;;;;;;;7.47;2.30;;;13.20;99.90;;;;;;4962865;28;20220;-78
2023/10/04 07:42:21;;;;;;;12.77;2.97;;;13.20;99.90;;;;;;4960694;28;20244;-78
2023/10/04 07:44:47;;;;;;;11.93;2.87;;;13.30;99.90;;;;;;4965260;28;20236;-78
2023/10/04 07:47:14;;;;;;;8.37;2.93;;;13.40;99.90;;;;;;4963592;28;20234;-78
2023/10/04 07:49:41;;;;;;;8.50;2.53;;;13.50;99.90;;;;;;4964285;28;20586;-78
2023/10/04 07:52:08;;;;;;;13.67;3.23;;;13.50;99.90;;;;;;4965102;28;20213;-78
2023/10/04 07:54:37;;;;;;;7.67;2.20;;;13.60;99.90;;;;;;4963477;28;20230;-78
2023/10/04 07:57:04;;;;;;;6.53;2.33;;;13.70;99.90;;;;;;4968766;28;20237;-78
2023/10/04 07:59:31;;;;;;;8.63;2.40;;;13.70;99.90;;;;;;4962549;28;20490;-78
2023/10/04 08:01:57;;;;;;;9.67;2.60;;;13.80;99.90;;;;;;4962692;28;20635;-78
2023/10/04 08:04:25;;;;;;;8.80;2.40;;;13.90;99.90;;;;;;4967725;28;20251;-78
2023/10/04 08:06:52;;;;;;;6.30;2.23;;;13.90;99.90;;;;;;4967169;28;20250;-78
2023/10/04 08:09:21;;;;;;;6.90;2.20;;;14.00;99.90;;;;;;4967339;28;20259;-78
2023/10/04 08:11:50;;;;;;;8.80;2.30;;;14.10;99.90;;;;;;4966556;28;20227;-78
2023/10/04 08:14:18;;;;;;;9.53;2.67;;;14.20;99.90;;;;;;4965691;28;20237;-77
2023/10/04 08:16:45;;;;;;;8.40;2.63;;;14.20;99.90;;;;;;4961372;28;20229;-77
2023/10/04 08:19:13;;;;;;;8.57;3.00;;;14.20;99.90;;;;;;4967349;28;20225;-78
2023/10/04 08:21:40;;;;;;;7.90;2.33;;;14.30;99.90;;;;;;4967590;28;20227;-78
2023/10/04 08:24:08;;;;;;;9.27;2.87;;;14.30;99.90;;;;;;4966916;28;20750;-78
2023/10/04 08:26:34;;;;;;;9.90;2.53;;;14.40;99.90;;;;;;4967304;28;20316;-78
2023/10/04 08:29:05;;;;;;;5.63;2.30;;;14.50;99.90;;;;;;4959775;28;20225;-78
2023/10/04 08:31:32;;;;;;;9.27;2.67;;;14.60;99.90;;;;;;4966975;28;20232;-77
2023/10/04 08:33:59;;;;;;;10.17;2.47;;;14.80;99.90;;;;;;4967838;28;20229;-78
2023/10/04 08:36:26;;;;;;;10.07;2.80;;;15.00;99.90;;;;;;4967724;28;20220;-78
2023/10/04 08:38:52;;;;;;;9.13;2.83;;;15.20;99.90;;;;;;4970700;28;20236;-78
2023/10/04 08:41:20;;;;;;;7.07;2.17;;;15.40;99.90;;;;;;4969229;28;20226;-78
2023/10/04 08:43:47;;;;;;;9.30;2.50;;;15.60;99.90;;;;;;4985684;28;20310;-78
2023/10/04 08:46:17;;;;;;;8.10;2.50;;;15.80;99.90;;;;;;4964733;28;20238;-78
2023/10/04 08:48:49;;;;;;;6.77;2.30;;;16.10;99.90;;;;;;4965742;28;20377;-78
2023/10/04 08:51:27;;;;;;;7.93;2.57;;;16.30;99.90;;;;;;4984862;28;20643;-78
2023/10/04 08:54:02;;;;;;;7.33;2.20;;;16.50;99.90;;;;;;4971444;28;20671;-78
2023/10/04 08:56:37;;;;;;;9.77;2.70;;;16.70;99.90;;;;;;4970304;28;20227;-78
2023/10/04 08:59:04;;;;;;;7.73;2.60;;;16.90;99.90;;;;;;4995266;23;20229;-77
2023/10/04 09:01:32;;;;;;;8.50;2.70;;;17.00;99.90;;;;;;4987345;28;20241;-77
2023/10/04 09:04:02;;;;;;;11.90;2.83;;;17.20;99.90;;;;;;4983868;28;20229;-77
2023/10/04 09:06:29;;;;;;;6.37;2.70;;;17.30;99.90;;;;;;4987207;28;20324;-77
2023/10/04 09:08:58;;;;;;;9.00;2.73;;;17.40;99.90;;;;;;4987285;28;20240;-77
2023/10/04 09:11:25;;;;;;;7.40;2.63;;;17.60;99.90;;;;;;4987173;28;20596;-77
2023/10/04 09:13:54;;;;;;;9.90;2.97;;;17.70;99.90;;;;;;4987794;28;20234;-77
2023/10/04 09:16:22;;;;;;;8.23;2.20;;;17.80;99.90;;;;;;5001360;28;20307;-77
2023/10/04 09:19:07;;;;;;;8.00;2.93;;;17.90;99.90;;;;;;4975129;28;20320;-77
2023/10/04 09:21:35;;;;;;;8.47;2.40;;;17.90;99.90;;;;;;4986771;28;20274;-77
2023/10/04 09:24:10;;;;;;;9.20;2.97;;;18.00;99.90;;;;;;4990271;28;20227;-77
2023/10/04 09:26:38;;;;;;;8.83;2.40;;;18.10;99.90;;;;;;4981027;28;20237;-77
2023/10/04 09:29:06;;;;;;;7.13;2.60;;;18.10;99.90;;;;;;4977900;28;20236;-77
2023/10/04 09:31:46;;;;;;;6.00;2.60;;;18.20;99.90;;;;;;4988692;28;20218;-77
2023/10/04 09:34:15;;;;;;;7.23;2.63;;;18.40;99.90;;;;;;4986317;28;20340;-77
2023/10/04 09:36:43;;;;;;;7.43;2.53;;;18.50;99.90;;;;;;5003143;28;20238;-77
2023/10/04 09:39:13;;;;;;;9.40;2.73;;;18.70;99.90;;;;;;4973722;28;20238;-77
2023/10/04 09:41:47;;;;;;;7.70;2.30;;;18.90;99.90;;;;;;4979287;28;20695;-77
2023/10/04 09:44:23;;;;;;;10.30;3.10;;;19.10;99.90;;;;;;5007460;28;20356;-77
2023/10/04 09:46:54;;;;;;;6.30;2.67;;;19.30;99.90;;;;;;4988551;28;20623;-77
2023/10/04 09:49:23;;;;;;;8.82;2.58;;;19.50;99.90;;;;;;4982467;28;20257;-77
2023/10/04 09:51:50;;;;;;;7.43;2.33;;;19.60;99.90;;;;;;4988249;28;20676;-77
2023/10/04 09:54:17;;;;;;;8.85;2.80;;;19.80;99.90;;;;;;4978993;28;20227;-77
2023/10/04 09:56:46;;;;;;;7.10;2.72;;;19.90;99.90;;;;;;4979279;28;20527;-76
2023/10/04 09:59:16;;;;;;;9.65;3.10;;;20.00;99.90;;;;;;4986222;28;20879;-77
2023/10/04 10:01:43;;;;;;;7.32;2.42;;;20.10;99.90;;;;;;4988151;28;20994;-77
2023/10/04 10:04:18;;;;;;;11.00;2.92;;;20.30;99.90;;;;;;4979210;28;20237;-77
2023/10/04 10:06:57;;;;;;;8.77;2.80;;;20.40;99.90;;;;;;4983367;28;20288;-77
2023/10/04 10:09:25;;;;;;;9.27;2.97;;;20.50;99.90;;;;;;4984673;28;20670;-77
2023/10/04 10:11:54;;;;;;;11.18;2.90;;;20.60;99.90;;;;;;4985173;28;20242;-76
2023/10/04 10:14:22;;;;;;;7.43;2.38;;;20.70;99.90;;;;;;4984358;28;20271;-76
2023/10/04 10:16:54;;;;;;;8.02;2.42;;;20.60;99.90;;;;;;4986315;28;20234;-77
2023/10/04 10:19:23;;;;;;;6.75;2.92;;;20.60;99.90;;;;;;4984002;28;20586;-77
2023/10/04 10:22:10;;;;;;;11.93;3.15;;;20.50;99.90;;;;;;4983136;28;20265;-77
2023/10/04 10:24:44;;;;;;;7.38;2.42;;;20.50;99.20;;;;;;4978392;28;20233;-77
2023/10/04 10:27:14;;;;;;;10.65;3.08;;;20.30;99.30;;;;;;4993611;28;20240;-77
2023/10/04 10:29:41;;;;;;;7.85;3.15;;;20.10;99.70;;;;;;4983504;28;20712;-77
2023/10/04 10:32:14;;;;;;;9.35;2.58;;;20.00;99.90;;;;;;4983699;28;20229;-77
2023/10/04 10:34:42;;;;;;;9.45;3.17;;;19.80;99.90;;;;;;4981300;28;20237;-77
2023/10/04 10:37:22;;;;;;;6.57;2.75;;;19.80;99.90;;;;;;4976602;28;20233;-77
2023/10/04 10:39:50;;;;;;;8.70;3.50;;;19.80;99.90;;;;;;4982208;28;20321;-77
2023/10/04 10:42:18;;;;;;;8.07;2.33;;;19.80;99.90;;;;;;4980090;28;20849;-77
2023/10/04 10:44:45;;;;;;;8.98;2.97;;;19.80;99.90;;;;;;4987789;28;20549;-77
2023/10/04 10:47:19;;;;;;;8.55;3.00;;;19.90;99.90;;;;;;4975818;28;20321;-77
2023/10/04 10:49:55;;;;;;;8.13;2.92;;;20.00;99.90;;;;;;4984476;28;20680;-77
2023/10/04 10:52:39;;;;;;;10.80;2.97;;;20.00;99.60;;;;;;4985041;28;20236;-77
2023/10/04 10:55:14;;;;;;;10.23;3.42;;;20.10;99.50;;;;;;4985591;28;20230;-77
2023/10/04 10:57:43;;;;;;;9.18;3.40;;;20.10;99.90;;;;;;4982805;28;20715;-77
2023/10/04 11:00:19;;;;;;;6.93;2.90;;;20.20;99.90;;;;;;4980679;28;20218;-77
2023/10/04 11:02:47;;;;;;;6.30;2.63;;;20.30;99.90;;;;;;4981592;28;20226;-77
2023/10/04 11:05:16;;;;;;;9.25;3.45;;;20.40;99.90;;;;;;4981734;28;20223;-76
2023/10/04 11:07:46;;;;;;;9.38;3.85;;;20.50;99.50;;;;;;4997822;28;20304;-77
2023/10/04 11:10:15;;;;;;;8.98;3.38;;;20.50;98.80;;;;;;4964887;28;20571;-77
2023/10/04 11:12:43;;;;;;;8.60;3.10;;;20.50;98.60;;;;;;4976999;28;20258;-77
2023/10/04 11:15:11;;;;;;;8.35;3.35;;;20.60;98.50;;;;;;4977885;28;20566;-77
2023/10/04 11:17:39;;;;;;;8.63;3.00;;;20.50;98.70;;;;;;4980920;28;20230;-76
2023/10/04 11:20:09;;;;;;;11.07;3.40;;;20.60;98.70;;;;;;4985476;28;20312;-77
2023/10/04 11:22:37;;;;;;;8.98;3.40;;;20.60;98.50;;;;;;4985118;28;20775;-77
2023/10/04 11:25:11;;;;;;;10.27;3.47;;;20.50;98.40;;;;;;4981407;28;20563;-76
2023/10/04 11:27:40;;;;;;;9.13;3.30;;;20.50;97.70;;;;;;4981666;28;20307;-77
2023/10/04 11:30:09;;;;;;;11.75;3.63;;;20.50;98.20;;;;;;4982555;28;20218;-77
2023/10/04 11:32:38;;;;;;;8.40;3.22;;;20.40;98.00;;;;;;4985471;28;20495;-77
2023/10/04 11:35:08;;;;;;;10.57;3.80;;;20.40;98.20;;;;;;4978332;28;20238;-77
2023/10/04 11:37:39;;;;;;;9.93;3.45;;;20.30;97.50;;;;;;4979454;28;20226;-76
2023/10/04 11:40:11;;;;;;;11.60;4.10;;;20.20;98.50;;;;;;4979406;28;20252;-77
2023/10/04 11:42:38;;;;;;;9.60;3.88;;;20.00;98.50;;;;;;4981791;28;20226;-77
2023/10/04 11:45:17;;;;;;;8.32;3.40;;;19.80;98.70;;;;;;4992131;28;20230;-77
2023/10/04 11:47:45;;;;;;;9.10;3.78;;;19.60;98.50;;;;;;4980366;28;20738;-77
2023/10/04 11:50:13;;;;;;;9.45;3.55;;;19.60;99.10;;;;;;4979416;28;20233;-77
2023/10/04 11:52:41;;;;;;;8.55;3.40;;;19.50;99.10;;;;;;4982787;28;20237;-77
2023/10/04 11:55:24;;;;;;;10.00;3.70;;;19.50;98.90;;;;;;4998137;28;20335;-77
2023/10/04 11:57:51;;;;;;;11.45;3.83;;;19.50;98.30;;;;;;4981260;28;20230;-77
2023/10/04 12:00:21;;;;;;;8.73;3.50;;;19.50;98.70;;;;;;4982833;28;20305;-77
2023/10/04 12:02:48;;;;;;;10.15;4.20;;;19.50;99.10;;;;;;4983459;28;20316;-77
2023/10/04 12:05:15;;;;;;;10.75;3.85;;;19.50;99.20;;;;;;4984497;28;20328;-77
2023/10/04 12:07:42;;;;;;;9.27;3.60;;;19.60;98.80;;;;;;4983249;28;20230;-77
2023/10/04 12:10:13;;;;;;;7.47;3.60;;;19.70;98.70;;;;;;4980048;28;20227;-77
2023/10/04 12:12:40;;;;;;;9.65;3.38;;;19.80;98.40;;;;;;4997344;28;20317;-77
2023/10/04 12:15:08;;;;;;;12.55;4.53;;;20.00;98.20;;;;;;4985737;28;20234;-77
2023/10/04 12:17:35;;;;;;;10.77;3.85;;;20.10;98.10;;;;;;4998806;28;20310;-77
2023/10/04 12:20:04;;;;;;;9.02;3.65;;;20.20;97.80;;;;;;4981867;28;20290;-77
2023/10/04 12:22:31;;;;;;;9.18;3.38;;;20.30;97.70;;;;;;4983617;28;20240;-77
2023/10/04 12:24:59;;;;;;;9.00;3.97;;;20.40;97.30;;;;;;5001067;28;20230;-77
2023/10/04 12:27:27;;;;;;;8.80;4.13;;;20.50;97.40;;;;;;4984525;28;20229;-77
2023/10/04 12:29:54;;;;;;;11.18;4.00;;;20.60;97.00;;;;;;4986426;28;20221;-77
2023/10/04 12:32:21;;;;;;;8.70;4.18;;;20.70;97.20;;;;;;4984180;28;20300;-77
2023/10/04 12:34:48;;;;;;;8.50;4.25;;;20.80;96.90;;;;;;4984581;28;20754;-77
2023/10/04 12:37:15;;;;;;;6.55;3.70;;;20.80;96.50;;;;;;4986657;28;20282;-77
2023/10/04 12:39:43;;;;;;;10.23;4.22;;;20.90;96.00;;;;;;4988276;28;20234;-78
2023/10/04 12:42:10;;;;;;;8.95;4.30;;;21.00;96.00;;;;;;4985231;28;20746;-79
2023/10/04 12:44:38;;;;;;;7.38;3.95;;;21.00;95.90;;;;;;4999274;28;20225;-78
2023/10/04 12:47:05;;;;;;;9.43;4.20;;;20.90;95.70;;;;;;4986297;28;20234;-78
2023/10/04 12:49:31;;;;;;;6.75;3.83;;;20.90;95.30;;;;;;4984792;28;20321;-77
2023/10/04 12:51:58;;;;;;;9.93;4.57;;;20.90;95.40;;;;;;4986744;28;20679;-77
2023/10/04 12:54:25;;;;;;;8.68;4.45;;;20.90;95.50;;;;;;4984172;28;20288;-77